createdAt,value
2022-10-17T00:02:45.677Z,100592.41
2022-10-17T00:05:38.362Z,100598.69
2022-10-17T00:08:27.616Z,100591.06
2022-10-17T00:11:26.291Z,100590.50
2022-10-17T00:14:18.027Z,100591.00
2022-10-17T00:17:08.042Z,100584.44
2022-10-17T00:19:57.909Z,100580.94
2022-10-17T00:22:47.627Z,100577.44
2022-10-17T00:25:37.394Z,100586.63
2022-10-17T00:28:26.544Z,100586.63
2022-10-17T00:31:19.542Z,100599.34
2022-10-17T00:34:09.174Z,100607.06
2022-10-17T00:36:58.781Z,100614.75
2022-10-17T00:39:48.223Z,100617.00
2022-10-17T00:42:37.823Z,100615.41
2022-10-17T00:45:30.755Z,100615.63
2022-10-17T00:48:22.649Z,100610.50
2022-10-17T00:51:13.295Z,100608.00
2022-10-17T00:54:02.995Z,100611.34
2022-10-17T00:56:53.207Z,100624.91
2022-10-17T00:59:44.765Z,100628.63
2022-10-17T01:02:36.547Z,100627.81
2022-10-17T01:05:26.152Z,100625.91
2022-10-17T01:08:15.935Z,100626.72
2022-10-17T01:11:34.992Z,100635.88
2022-10-17T01:14:34.945Z,100627.97
2022-10-17T01:17:37.536Z,100618.59
2022-10-17T01:20:40.228Z,100621.13
2022-10-17T01:24:11.850Z,100618.66
2022-10-17T01:27:25.571Z,100606.81
2022-10-17T01:30:47.589Z,100596.88
2022-10-17T01:34:03.137Z,100593.19
2022-10-17T01:37:31.185Z,100583.19
2022-10-17T01:40:49.506Z,100592.94
2022-10-17T01:44:02.002Z,100584.84
2022-10-17T01:49:53.445Z,100582.16
2022-10-17T01:53:28.729Z,100582.75
2022-10-17T01:56:18.895Z,100574.03
2022-10-17T01:59:21.952Z,100566.94
2022-10-17T02:02:13.780Z,100560.28
2022-10-17T02:05:05.360Z,100552.34
2022-10-17T02:07:55.420Z,100559.91
2022-10-17T02:11:07.635Z,100554.47
2022-10-17T02:14:32.586Z,100553.22
2022-10-17T02:17:32.586Z,100550.28
2022-10-17T02:20:47.761Z,100556.75
2022-10-17T02:23:56.443Z,100556.09
2022-10-17T02:27:03.398Z,100560.91
2022-10-17T02:30:02.859Z,100565.28
2022-10-17T02:33:02.026Z,100563.41
2022-10-17T02:35:55.185Z,100559.06
2022-10-17T02:38:45.427Z,100550.50
2022-10-17T02:41:35.785Z,100536.31
2022-10-17T02:44:25.892Z,100559.88
2022-10-17T02:47:28.989Z,100544.44
2022-10-17T02:50:18.843Z,100546.94
2022-10-17T02:53:14.096Z,100538.19
2022-10-17T02:56:16.633Z,100540.28
2022-10-17T02:59:08.922Z,100539.63
2022-10-17T03:01:58.376Z,100544.88
2022-10-17T03:04:48.876Z,100536.13
2022-10-17T03:07:38.787Z,100540.28
2022-10-17T03:10:28.833Z,100544.88
2022-10-17T03:13:19.605Z,100530.31
2022-10-17T03:16:11.428Z,100526.94
2022-10-17T03:19:01.672Z,100530.69
2022-10-17T03:21:51.453Z,100517.97
2022-10-17T03:24:41.623Z,100519.16
2022-10-17T03:27:31.361Z,100510.22
2022-10-17T03:30:22.058Z,100528.13
2022-10-17T03:33:13.047Z,100525.81
2022-10-17T03:36:08.460Z,100516.00
2022-10-17T03:38:58.244Z,100519.53
2022-10-17T03:41:47.642Z,100518.06
2022-10-17T03:44:36.820Z,100518.66
2022-10-17T03:47:29.098Z,100511.59
2022-10-17T03:50:18.837Z,100501.72
2022-10-17T03:53:09.839Z,100485.78
2022-10-17T03:56:10.280Z,100487.41
2022-10-17T03:59:00.928Z,100488.00
2022-10-17T04:01:52.400Z,100475.97
2022-10-17T04:04:43.378Z,100468.19
2022-10-17T04:07:33.502Z,100462.78
2022-10-17T04:10:25.643Z,100465.94
2022-10-17T04:13:16.358Z,100462.53
2022-10-17T04:16:09.150Z,100464.34
2022-10-17T04:19:03.850Z,100462.56
2022-10-17T04:21:58.806Z,100459.19
2022-10-17T04:24:51.011Z,100459.97
2022-10-17T04:28:00.823Z,100461.84
2022-10-17T04:31:04.438Z,100466.44
2022-10-17T04:34:02.316Z,100453.16
2022-10-17T04:36:53.291Z,100454.41
2022-10-17T04:39:43.844Z,100453.25
2022-10-17T04:42:33.436Z,100452.66
2022-10-17T04:45:23.878Z,100451.56
2022-10-17T04:48:19.358Z,100455.94
2022-10-17T04:51:14.426Z,100449.66
2022-10-17T04:54:22.208Z,100451.38
2022-10-17T04:57:17.851Z,100447.22
2022-10-17T05:00:16.884Z,100448.53
2022-10-17T05:03:21.949Z,100455.34
2022-10-17T05:06:16.370Z,100447.13
2022-10-17T05:09:11.790Z,100438.00
2022-10-17T05:12:02.635Z,100440.22
2022-10-17T05:14:55.000Z,100430.00
2022-10-17T05:17:47.905Z,100418.53
2022-10-17T05:20:40.848Z,100408.19
2022-10-17T05:23:31.856Z,100403.19
2022-10-17T05:26:22.739Z,100405.72
2022-10-17T05:29:12.250Z,100397.78
2022-10-17T05:32:07.267Z,100392.81
2022-10-17T05:34:58.014Z,100397.41
2022-10-17T05:37:47.700Z,100393.66
2022-10-17T05:40:40.333Z,100391.19
2022-10-17T05:43:36.556Z,100396.19
2022-10-17T05:46:27.370Z,100396.41
2022-10-17T05:49:32.165Z,100405.78
2022-10-17T05:52:22.967Z,100405.75
2022-10-17T05:55:41.720Z,100389.72
2022-10-17T05:59:00.907Z,100393.66
2022-10-17T06:02:02.656Z,100381.16
2022-10-17T06:04:52.777Z,100374.47
2022-10-17T06:07:44.643Z,100365.91
2022-10-17T06:10:35.827Z,100361.53
2022-10-17T06:13:26.432Z,100357.78
2022-10-17T06:16:17.475Z,100365.28
2022-10-17T06:19:07.843Z,100378.63
2022-10-17T06:21:59.062Z,100367.00
2022-10-17T06:24:50.027Z,100364.28
2022-10-17T06:27:39.807Z,100355.75
2022-10-17T06:30:29.481Z,100354.50
2022-10-17T06:33:19.249Z,100355.13
2022-10-17T06:36:10.207Z,100358.03
2022-10-17T06:39:00.117Z,100362.81
2022-10-17T06:41:55.761Z,100354.69
2022-10-17T06:44:59.293Z,100353.66
2022-10-17T06:48:03.150Z,100348.47
2022-10-17T06:51:10.734Z,100335.97
2022-10-17T06:54:09.665Z,100332.22
2022-10-17T06:57:17.183Z,100342.66
2022-10-17T07:00:21.718Z,100340.41
2022-10-17T07:03:14.828Z,100342.06
2022-10-17T07:06:05.011Z,100343.72
2022-10-17T07:08:57.417Z,100343.72
2022-10-17T07:11:47.397Z,100340.41
2022-10-17T07:14:40.500Z,100334.97
2022-10-17T07:17:31.319Z,100343.94
2022-10-17T07:20:20.894Z,100345.44
2022-10-17T07:23:11.156Z,100350.00
2022-10-17T07:26:08.310Z,100340.44
2022-10-17T07:29:03.337Z,100335.00
2022-10-17T07:31:57.634Z,100331.66
2022-10-17T07:34:47.515Z,100337.69
2022-10-17T07:37:38.085Z,100332.69
2022-10-17T07:40:27.886Z,100325.00
2022-10-17T07:43:18.114Z,100328.38
2022-10-17T07:46:07.875Z,100329.19
2022-10-17T07:48:57.960Z,100335.88
2022-10-17T07:51:49.591Z,100334.81
2022-10-17T07:54:39.644Z,100339.63
2022-10-17T07:57:29.708Z,100348.16
2022-10-17T08:00:19.639Z,100350.84
2022-10-17T08:03:11.741Z,100345.88
2022-10-17T08:06:02.467Z,100351.69
2022-10-17T08:08:52.241Z,100355.44
2022-10-17T08:11:41.989Z,100356.28
2022-10-17T08:14:31.724Z,100351.72
2022-10-17T08:17:21.267Z,100347.75
2022-10-17T08:20:11.363Z,100360.66
2022-10-17T08:23:00.792Z,100369.19
2022-10-17T08:25:50.432Z,100372.50
2022-10-17T08:28:42.957Z,100377.94
2022-10-17T08:31:33.661Z,100370.25
2022-10-17T08:34:29.771Z,100387.91
2022-10-17T08:37:22.057Z,100397.88
2022-10-17T08:40:21.131Z,100393.53
2022-10-17T08:43:21.683Z,100400.78
2022-10-17T08:46:16.939Z,100402.00
2022-10-17T08:49:14.766Z,100424.44
2022-10-17T08:52:31.049Z,100423.59
2022-10-17T08:55:44.613Z,100430.00
2022-10-17T08:58:39.516Z,100436.63
2022-10-17T09:01:43.467Z,100440.09
2022-10-17T09:04:54.123Z,100438.38
2022-10-17T09:08:10.332Z,100444.16
2022-10-17T09:11:16.656Z,100443.34
2022-10-17T09:14:27.340Z,100445.81
2022-10-17T09:17:36.903Z,100444.28
2022-10-17T09:20:47.032Z,100446.50
2022-10-17T09:23:47.859Z,100447.31
2022-10-17T09:26:41.452Z,100440.63
2022-10-17T09:29:36.906Z,100440.59
2022-10-17T09:32:29.423Z,100440.59
2022-10-17T09:35:24.636Z,100448.47
2022-10-17T09:38:21.879Z,100453.84
2022-10-17T09:41:44.425Z,100455.69
2022-10-17T09:44:37.166Z,100452.59
2022-10-17T09:47:33.619Z,100445.53
2022-10-17T09:50:35.147Z,100452.34
2022-10-17T09:53:47.187Z,100460.03
2022-10-17T09:57:00.677Z,100467.50
2022-10-17T10:00:05.755Z,100469.16
2022-10-17T10:03:14.680Z,100468.81
2022-10-17T10:06:19.191Z,100469.84
2022-10-17T10:09:22.440Z,100474.16
2022-10-17T10:12:21.554Z,100478.78
2022-10-17T10:15:41.968Z,100476.72
2022-10-17T10:18:37.139Z,100475.88
2022-10-17T10:21:29.460Z,100477.75
2022-10-17T10:24:21.240Z,100475.69
2022-10-17T10:27:19.077Z,100479.44
2022-10-17T10:30:09.192Z,100480.44
2022-10-17T10:33:00.016Z,100482.94
2022-10-17T10:36:04.880Z,100489.19
2022-10-17T10:39:03.834Z,100494.78
2022-10-17T10:41:55.402Z,100503.75
2022-10-17T10:44:45.156Z,100512.44
2022-10-17T10:47:34.904Z,100519.53
2022-10-17T10:50:45.064Z,100535.97
2022-10-17T10:53:50.779Z,100550.66
2022-10-17T10:56:48.784Z,100545.28
2022-10-17T11:00:01.779Z,100531.19
2022-10-17T11:03:11.825Z,100531.97
2022-10-17T11:06:15.004Z,100531.34
2022-10-17T11:09:31.409Z,100537.78
2022-10-17T11:12:31.471Z,100541.88
2022-10-17T11:15:33.388Z,100545.63
2022-10-17T11:18:32.346Z,100547.69
2022-10-17T11:21:45.937Z,100555.53
2022-10-17T11:24:42.376Z,100557.13
2022-10-17T11:27:32.923Z,100549.03
2022-10-17T11:30:23.800Z,100548.38
2022-10-17T11:33:35.902Z,100550.91
2022-10-17T11:36:39.660Z,100557.56
2022-10-17T11:39:56.978Z,100552.19
2022-10-17T11:43:29.136Z,100559.75
2022-10-17T11:46:27.708Z,100570.69
2022-10-17T11:49:20.944Z,100580.56
2022-10-17T11:52:55.509Z,100588.16
2022-10-17T11:55:47.615Z,100591.88
2022-10-17T11:58:43.427Z,100587.25
2022-10-17T12:01:41.282Z,100585.19
2022-10-17T12:05:03.210Z,100586.81
2022-10-17T12:07:56.706Z,100596.75
2022-10-17T12:10:47.732Z,100598.81
2022-10-17T12:13:37.099Z,100596.75
2022-10-17T12:16:26.873Z,100595.81
2022-10-17T12:19:23.372Z,100604.56
2022-10-17T12:22:21.369Z,100607.25
2022-10-17T12:25:32.911Z,100614.31
2022-10-17T12:28:34.870Z,100609.22
2022-10-17T12:31:33.863Z,100607.94
2022-10-17T12:34:25.928Z,100618.41
2022-10-17T12:37:16.390Z,100610.63
2022-10-17T12:40:39.376Z,100609.31
2022-10-17T12:43:32.007Z,100608.66
2022-10-17T12:47:01.613Z,100609.03
2022-10-17T12:49:55.805Z,100606.16
2022-10-17T12:53:01.654Z,100614.53
2022-10-17T12:55:52.851Z,100617.78
2022-10-17T12:58:50.320Z,100625.22
2022-10-17T13:01:41.159Z,100621.59
2022-10-17T13:04:32.617Z,100620.47
2022-10-17T13:07:25.453Z,100623.81
2022-10-17T13:13:41.294Z,100620.59
2022-10-17T13:16:34.352Z,100629.84
2022-10-17T13:19:32.095Z,100633.88
2022-10-17T13:22:33.581Z,100641.59
2022-10-17T13:25:28.219Z,100643.16
2022-10-17T13:28:18.651Z,100654.72
2022-10-17T13:31:08.960Z,100655.66
2022-10-17T13:34:00.919Z,100654.50
2022-10-17T13:36:57.982Z,100656.81
2022-10-17T13:39:55.548Z,100652.66
2022-10-17T13:42:45.151Z,100661.13
2022-10-17T13:45:39.364Z,100659.72
2022-10-17T13:48:30.346Z,100669.66
2022-10-17T13:51:20.179Z,100655.53
2022-10-17T13:54:38.721Z,100657.47
2022-10-17T13:57:31.412Z,100648.94
2022-10-17T14:00:23.972Z,100641.41
2022-10-17T14:03:14.561Z,100641.03
2022-10-17T14:06:10.641Z,100651.00
2022-10-17T14:09:02.407Z,100643.44
2022-10-17T14:12:20.494Z,100652.38
2022-10-17T14:15:14.522Z,100653.47
2022-10-17T14:18:09.932Z,100650.63
2022-10-17T14:24:25.834Z,100643.00
2022-10-17T14:27:39.547Z,100639.63
2022-10-17T14:33:42.545Z,100613.59
2022-10-17T14:36:36.657Z,100611.63
2022-10-17T14:39:27.806Z,100612.25
2022-10-17T14:42:24.100Z,100615.41
2022-10-17T14:45:21.354Z,100613.09
2022-10-17T14:48:20.119Z,100612.69
2022-10-17T14:51:16.931Z,100605.25
2022-10-17T14:54:15.575Z,100615.00
2022-10-17T14:57:18.719Z,100617.72
2022-10-17T15:00:11.623Z,100624.78
2022-10-17T15:03:04.662Z,100626.44
2022-10-17T15:05:56.837Z,100619.78
2022-10-17T15:08:46.079Z,100618.34
2022-10-17T15:11:38.721Z,100622.72
2022-10-17T15:14:28.961Z,100629.78
2022-10-17T15:17:30.397Z,100624.78
2022-10-17T15:20:21.352Z,100638.91
2022-10-17T15:23:10.741Z,100629.97
2022-10-17T15:26:01.157Z,100630.44
2022-10-17T15:28:55.189Z,100630.19
2022-10-17T15:31:45.127Z,100632.66
2022-10-17T15:34:35.237Z,100627.66
2022-10-17T15:37:26.391Z,100628.94
2022-10-17T15:40:25.248Z,100637.63
2022-10-17T15:43:18.755Z,100629.16
2022-10-17T15:46:22.221Z,100626.84
2022-10-17T15:49:16.680Z,100625.81
2022-10-17T15:52:06.758Z,100620.22
2022-10-17T15:54:59.491Z,100614.16
2022-10-17T15:57:52.047Z,100610.44
2022-10-17T16:00:43.717Z,100605.03
2022-10-17T16:03:34.659Z,100599.47
2022-10-17T16:06:25.860Z,100599.47
2022-10-17T16:09:15.730Z,100599.66
2022-10-17T16:12:07.790Z,100592.41
2022-10-17T16:14:58.275Z,100583.28
2022-10-17T16:17:47.699Z,100581.59
2022-10-17T16:20:37.518Z,100581.59
2022-10-17T16:23:27.996Z,100578.91
2022-10-17T16:26:17.884Z,100569.97
2022-10-17T16:29:08.175Z,100573.25
2022-10-17T16:31:58.180Z,100574.06
2022-10-17T16:34:47.896Z,100562.47
2022-10-17T16:37:37.209Z,100559.34
2022-10-17T16:40:27.244Z,100560.16
2022-10-17T16:43:16.813Z,100555.78
2022-10-17T16:46:10.036Z,100548.72
2022-10-17T16:49:00.808Z,100543.31
2022-10-17T16:51:50.035Z,100540.84
2022-10-17T16:54:40.082Z,100536.25
2022-10-17T16:57:30.178Z,100533.94
2022-10-17T17:00:22.826Z,100526.25
2022-10-17T17:03:12.940Z,100526.88
2022-10-17T17:06:02.856Z,100521.22
2022-10-17T17:08:53.236Z,100518.25
2022-10-17T17:11:48.039Z,100517.44
2022-10-17T17:14:37.323Z,100528.22
2022-10-17T17:17:36.825Z,100527.75
2022-10-17T17:20:38.340Z,100524.78
2022-10-17T17:23:28.646Z,100523.50
2022-10-17T17:26:20.355Z,100526.41
2022-10-17T17:29:09.955Z,100531.31
2022-10-17T17:31:59.996Z,100528.00
2022-10-17T17:34:49.816Z,100529.88
2022-10-17T17:37:39.208Z,100525.03
2022-10-17T17:40:28.227Z,100520.50
2022-10-17T17:43:17.444Z,100519.00
2022-10-17T17:46:06.732Z,100520.00
2022-10-17T17:48:58.215Z,100516.69
2022-10-17T17:51:47.826Z,100519.38
2022-10-17T17:54:40.742Z,100525.34
2022-10-17T17:57:31.386Z,100512.03
2022-10-17T18:00:21.228Z,100508.31
2022-10-17T18:03:10.902Z,100513.72
2022-10-17T18:06:00.719Z,100510.84
2022-10-17T18:08:53.475Z,100510.00
2022-10-17T18:11:43.047Z,100511.03
2022-10-17T18:14:32.758Z,100510.38
2022-10-17T18:17:23.007Z,100502.28
2022-10-17T18:20:14.486Z,100500.63
2022-10-17T18:23:04.324Z,100498.31
2022-10-17T18:26:02.298Z,100498.13
2022-10-17T18:28:52.128Z,100502.88
2022-10-17T18:31:41.460Z,100500.34
2022-10-17T18:34:31.209Z,100500.56
2022-10-17T18:37:20.626Z,100504.06
2022-10-17T18:40:10.452Z,100497.00
2022-10-17T18:43:00.037Z,100496.41
2022-10-17T18:45:51.174Z,100489.50
2022-10-17T18:48:42.403Z,100477.91
2022-10-17T18:51:31.881Z,100484.97
2022-10-17T18:54:23.095Z,100474.19
2022-10-17T18:57:12.714Z,100465.47
2022-10-17T19:00:01.850Z,100472.69
2022-10-17T19:02:51.268Z,100459.41
2022-10-17T19:05:41.518Z,100462.09
2022-10-17T19:08:33.296Z,100461.25
2022-10-17T19:11:25.395Z,100462.47
2022-10-17T19:14:15.009Z,100457.06
2022-10-17T19:17:04.958Z,100458.28
2022-10-17T19:19:55.905Z,100446.03
2022-10-17T19:22:45.959Z,100450.03
2022-10-17T19:25:35.933Z,100454.94
2022-10-17T19:28:25.473Z,100460.16
2022-10-17T19:31:16.993Z,100461.19
2022-10-17T19:34:07.613Z,100457.47
2022-10-17T19:36:58.389Z,100463.50
2022-10-17T19:39:49.434Z,100463.22
2022-10-17T19:42:38.631Z,100457.84
2022-10-17T19:45:27.895Z,100456.16
2022-10-17T19:48:18.416Z,100459.03
2022-10-17T19:51:09.102Z,100455.31
2022-10-17T19:54:01.279Z,100455.91
2022-10-17T19:56:50.837Z,100453.00
2022-10-17T19:59:39.660Z,100455.53
2022-10-17T20:02:29.591Z,100466.31
2022-10-17T20:05:20.209Z,100460.25
2022-10-17T20:08:10.613Z,100452.34
2022-10-17T20:11:08.080Z,100461.47
2022-10-17T20:13:58.271Z,100458.97
2022-10-17T20:16:53.307Z,100461.66
2022-10-17T20:19:45.381Z,100462.69
2022-10-17T20:22:35.727Z,100460.16
2022-10-17T20:25:26.404Z,100470.13
2022-10-17T20:28:17.097Z,100471.78
2022-10-17T20:31:08.523Z,100474.50
2022-10-17T20:34:01.459Z,100475.50
2022-10-17T20:36:53.230Z,100477.19
2022-10-17T20:39:44.351Z,100474.66
2022-10-17T20:42:36.149Z,100474.66
2022-10-17T20:45:37.591Z,100473.84
2022-10-17T20:48:35.386Z,100484.63
2022-10-17T20:51:24.242Z,100491.69
2022-10-17T20:54:13.800Z,100489.16
2022-10-17T20:57:04.908Z,100488.50
2022-10-17T20:59:54.120Z,100498.75
2022-10-17T21:02:43.157Z,100508.00
2022-10-17T21:05:33.767Z,100507.38
2022-10-17T21:08:23.217Z,100505.69
2022-10-17T21:11:18.660Z,100515.66
2022-10-17T21:14:09.147Z,100515.66
2022-10-17T21:17:03.870Z,100521.41
2022-10-17T21:19:56.701Z,100521.41
2022-10-17T21:22:45.735Z,100523.47
2022-10-17T21:25:35.283Z,100527.81
2022-10-17T21:28:25.863Z,100538.59
2022-10-17T21:31:16.971Z,100539.63
2022-10-17T21:34:11.281Z,100543.34
2022-10-17T21:37:01.343Z,100537.09
2022-10-17T21:39:50.910Z,100534.59
2022-10-17T21:42:40.004Z,100547.03
2022-10-17T21:45:29.686Z,100549.09
2022-10-17T21:48:18.741Z,100550.28
2022-10-17T21:51:10.840Z,100557.16
2022-10-17T21:54:05.673Z,100556.16
2022-10-17T21:56:55.982Z,100565.03
2022-10-17T21:59:45.846Z,100568.97
2022-10-17T22:02:34.899Z,100570.00
2022-10-17T22:05:26.185Z,100578.44
2022-10-17T22:08:16.773Z,100578.88
2022-10-17T22:11:15.169Z,100584.28
2022-10-17T22:14:07.818Z,100588.84
2022-10-17T22:16:58.164Z,100590.88
2022-10-17T22:19:49.492Z,100594.97
2022-10-17T22:22:39.590Z,100596.28
2022-10-17T22:25:29.088Z,100595.41
2022-10-17T22:28:18.439Z,100602.03
2022-10-17T22:31:08.835Z,100608.59
2022-10-17T22:33:59.957Z,100616.50
2022-10-17T22:36:50.724Z,100610.84
2022-10-17T22:39:41.189Z,100615.50
2022-10-17T22:42:32.366Z,100622.53
2022-10-17T22:45:21.808Z,100632.66
2022-10-17T22:48:11.561Z,100635.34
2022-10-17T22:51:02.016Z,100638.88
2022-10-17T22:53:51.779Z,100643.59
2022-10-17T22:56:41.185Z,100652.81
2022-10-17T22:59:29.978Z,100657.56
2022-10-17T23:02:19.788Z,100660.41
2022-10-17T23:05:10.552Z,100662.56
2022-10-17T23:08:00.197Z,100661.66
2022-10-17T23:10:50.093Z,100660.47
2022-10-17T23:13:41.734Z,100659.44
2022-10-17T23:16:31.282Z,100663.53
2022-10-17T23:19:20.699Z,100665.66
2022-10-17T23:22:10.261Z,100668.53
2022-10-17T23:24:59.923Z,100665.28
2022-10-17T23:27:50.255Z,100676.53
2022-10-17T23:30:40.582Z,100681.09
2022-10-17T23:33:30.023Z,100683.59
2022-10-17T23:36:25.336Z,100683.59
2022-10-17T23:39:14.959Z,100695.31
2022-10-17T23:42:03.967Z,100686.59
2022-10-17T23:44:53.083Z,100694.47
2022-10-17T23:47:42.477Z,100694.09
2022-10-17T23:50:32.799Z,100694.59
2022-10-17T23:53:22.095Z,100694.59
2022-10-17T23:56:12.527Z,100695.41
2022-10-17T23:59:02.015Z,100691.00
